sensor_id;sensor_type;location;lat;lon;timestamp;P1;durP1;ratioP1;P2;durP2;ratioP2
21941;SDS011;11135;54.192;15.670;2023-09-07T00:02:19;16.08;;;12.27;;
21941;SDS011;11135;54.192;15.670;2023-09-07T00:06:00;16.17;;;11.52;;
21941;SDS011;11135;54.192;15.670;2023-09-07T00:09:25;17.50;;;12.68;;
21941;SDS011;11135;54.192;15.670;2023-09-07T00:12:51;18.15;;;13.43;;
21941;SDS011;11135;54.192;15.670;2023-09-07T00:16:20;19.02;;;13.23;;
21941;SDS011;11135;54.192;15.670;2023-09-07T00:19:46;17.23;;;13.43;;
21941;SDS011;11135;54.192;15.670;2023-09-07T00:23:17;17.60;;;12.40;;
21941;SDS011;11135;54.192;15.670;2023-09-07T00:26:46;18.52;;;12.93;;
21941;SDS011;11135;54.192;15.670;2023-09-07T00:30:15;21.38;;;13.10;;
21941;SDS011;11135;54.192;15.670;2023-09-07T00:33:43;20.17;;;13.02;;
21941;SDS011;11135;54.192;15.670;2023-09-07T00:37:09;17.20;;;12.43;;
21941;SDS011;11135;54.192;15.670;2023-09-07T00:40:35;17.42;;;12.77;;
21941;SDS011;11135;54.192;15.670;2023-09-07T00:44:01;17.45;;;11.95;;
21941;SDS011;11135;54.192;15.670;2023-09-07T00:47:27;17.90;;;12.35;;
21941;SDS011;11135;54.192;15.670;2023-09-07T00:50:55;15.23;;;11.80;;
21941;SDS011;11135;54.192;15.670;2023-09-07T00:54:21;15.32;;;12.70;;
21941;SDS011;11135;54.192;15.670;2023-09-07T00:57:48;15.07;;;11.88;;
21941;SDS011;11135;54.192;15.670;2023-09-07T01:01:13;13.07;;;11.20;;
21941;SDS011;11135;54.192;15.670;2023-09-07T01:04:39;15.45;;;11.43;;
21941;SDS011;11135;54.192;15.670;2023-09-07T01:08:09;13.20;;;10.60;;
21941;SDS011;11135;54.192;15.670;2023-09-07T01:11:37;13.75;;;11.48;;
21941;SDS011;11135;54.192;15.670;2023-09-07T01:15:02;15.25;;;12.63;;
21941;SDS011;11135;54.192;15.670;2023-09-07T01:18:29;14.90;;;11.95;;
21941;SDS011;11135;54.192;15.670;2023-09-07T01:21:58;13.93;;;11.55;;
21941;SDS011;11135;54.192;15.670;2023-09-07T01:25:25;15.80;;;12.65;;
21941;SDS011;11135;54.192;15.670;2023-09-07T01:28:50;14.88;;;12.07;;
21941;SDS011;11135;54.192;15.670;2023-09-07T01:32:16;13.40;;;10.00;;
21941;SDS011;11135;54.192;15.670;2023-09-07T01:35:42;15.63;;;11.90;;
21941;SDS011;11135;54.192;15.670;2023-09-07T01:39:11;14.50;;;11.10;;
21941;SDS011;11135;54.192;15.670;2023-09-07T01:42:36;15.13;;;12.65;;
21941;SDS011;11135;54.192;15.670;2023-09-07T01:46:03;16.48;;;11.82;;
21941;SDS011;11135;54.192;15.670;2023-09-07T01:49:32;15.68;;;10.93;;
21941;SDS011;11135;54.192;15.670;2023-09-07T01:52:59;14.63;;;10.88;;
21941;SDS011;11135;54.192;15.670;2023-09-07T01:56:28;14.73;;;10.57;;
21941;SDS011;11135;54.192;15.670;2023-09-07T01:59:54;14.13;;;11.32;;
21941;SDS011;11135;54.192;15.670;2023-09-07T02:03:20;14.73;;;10.98;;
21941;SDS011;11135;54.192;15.670;2023-09-07T02:06:46;12.30;;;10.43;;
21941;SDS011;11135;54.192;15.670;2023-09-07T02:10:12;15.43;;;12.18;;
21941;SDS011;11135;54.192;15.670;2023-09-07T02:13:40;12.48;;;10.30;;
21941;SDS011;11135;54.192;15.670;2023-09-07T02:17:06;16.27;;;11.13;;
21941;SDS011;11135;54.192;15.670;2023-09-07T02:20:32;15.13;;;11.82;;
21941;SDS011;11135;54.192;15.670;2023-09-07T02:23:58;13.70;;;10.52;;
21941;SDS011;11135;54.192;15.670;2023-09-07T02:27:24;13.52;;;10.20;;
21941;SDS011;11135;54.192;15.670;2023-09-07T02:30:52;16.00;;;11.55;;
21941;SDS011;11135;54.192;15.670;2023-09-07T02:34:18;15.77;;;11.48;;
21941;SDS011;11135;54.192;15.670;2023-09-07T02:37:44;15.75;;;10.90;;
21941;SDS011;11135;54.192;15.670;2023-09-07T02:41:10;12.55;;;10.32;;
21941;SDS011;11135;54.192;15.670;2023-09-07T02:44:37;16.15;;;12.05;;
21941;SDS011;11135;54.192;15.670;2023-09-07T02:48:06;13.32;;;10.35;;
21941;SDS011;11135;54.192;15.670;2023-09-07T02:51:32;15.23;;;10.48;;
21941;SDS011;11135;54.192;15.670;2023-09-07T02:54:58;12.80;;;10.27;;
21941;SDS011;11135;54.192;15.670;2023-09-07T02:58:24;13.10;;;10.93;;
21941;SDS011;11135;54.192;15.670;2023-09-07T03:01:51;11.52;;;10.20;;
21941;SDS011;11135;54.192;15.670;2023-09-07T03:05:20;11.60;;;9.10;;
21941;SDS011;11135;54.192;15.670;2023-09-07T03:08:47;13.00;;;9.63;;
21941;SDS011;11135;54.192;15.670;2023-09-07T03:12:12;14.27;;;10.45;;
21941;SDS011;11135;54.192;15.670;2023-09-07T03:15:38;10.75;;;9.65;;
21941;SDS011;11135;54.192;15.670;2023-09-07T03:19:04;12.25;;;9.63;;
21941;SDS011;11135;54.192;15.670;2023-09-07T03:22:34;12.80;;;11.05;;
21941;SDS011;11135;54.192;15.670;2023-09-07T03:26:00;15.52;;;11.23;;
21941;SDS011;11135;54.192;15.670;2023-09-07T03:29:26;14.55;;;11.30;;
21941;SDS011;11135;54.192;15.670;2023-09-07T03:32:52;14.57;;;11.45;;
21941;SDS011;11135;54.192;15.670;2023-09-07T03:36:18;15.98;;;11.30;;
21941;SDS011;11135;54.192;15.670;2023-09-07T03:39:48;13.15;;;11.18;;
21941;SDS011;11135;54.192;15.670;2023-09-07T03:43:14;16.77;;;11.93;;
21941;SDS011;11135;54.192;15.670;2023-09-07T03:46:40;16.98;;;12.32;;
21941;SDS011;11135;54.192;15.670;2023-09-07T03:50:07;23.02;;;12.73;;
21941;SDS011;11135;54.192;15.670;2023-09-07T03:53:33;22.70;;;12.63;;
21941;SDS011;11135;54.192;15.670;2023-09-07T03:57:04;19.58;;;13.13;;
21941;SDS011;11135;54.192;15.670;2023-09-07T04:00:30;17.42;;;12.18;;
21941;SDS011;11135;54.192;15.670;2023-09-07T04:03:56;13.20;;;10.80;;
21941;SDS011;11135;54.192;15.670;2023-09-07T04:07:21;15.00;;;10.70;;
21941;SDS011;11135;54.192;15.670;2023-09-07T04:10:47;17.05;;;11.18;;
21941;SDS011;11135;54.192;15.670;2023-09-07T04:14:16;20.25;;;10.70;;
21941;SDS011;11135;54.192;15.670;2023-09-07T04:17:42;27.05;;;12.23;;
21941;SDS011;11135;54.192;15.670;2023-09-07T04:21:10;28.92;;;12.00;;
21941;SDS011;11135;54.192;15.670;2023-09-07T04:24:36;38.70;;;13.68;;
21941;SDS011;11135;54.192;15.670;2023-09-07T04:28:02;34.85;;;12.75;;
21941;SDS011;11135;54.192;15.670;2023-09-07T04:31:34;33.17;;;12.90;;
21941;SDS011;11135;54.192;15.670;2023-09-07T04:35:02;40.60;;;13.20;;
21941;SDS011;11135;54.192;15.670;2023-09-07T04:38:28;39.67;;;13.02;;
21941;SDS011;11135;54.192;15.670;2023-09-07T04:41:54;22.30;;;12.13;;
21941;SDS011;11135;54.192;15.670;2023-09-07T04:45:21;15.45;;;10.32;;
21941;SDS011;11135;54.192;15.670;2023-09-07T04:48:49;18.77;;;11.48;;
21941;SDS011;11135;54.192;15.670;2023-09-07T04:52:15;15.40;;;10.30;;
21941;SDS011;11135;54.192;15.670;2023-09-07T04:55:42;14.27;;;9.80;;
21941;SDS011;11135;54.192;15.670;2023-09-07T04:59:10;12.98;;;10.00;;
21941;SDS011;11135;54.192;15.670;2023-09-07T05:02:35;12.38;;;10.05;;
21941;SDS011;11135;54.192;15.670;2023-09-07T05:06:11;11.02;;;9.40;;
21941;SDS011;11135;54.192;15.670;2023-09-07T05:09:36;12.25;;;10.13;;
21941;SDS011;11135;54.192;15.670;2023-09-07T05:13:03;11.00;;;9.82;;
21941;SDS011;11135;54.192;15.670;2023-09-07T05:16:28;11.50;;;10.30;;
21941;SDS011;11135;54.192;15.670;2023-09-07T05:19:54;11.35;;;9.43;;
21941;SDS011;11135;54.192;15.670;2023-09-07T05:23:23;10.70;;;9.60;;
21941;SDS011;11135;54.192;15.670;2023-09-07T05:26:51;11.65;;;10.05;;
21941;SDS011;11135;54.192;15.670;2023-09-07T05:30:18;12.73;;;9.60;;
21941;SDS011;11135;54.192;15.670;2023-09-07T05:33:45;11.65;;;10.35;;
21941;SDS011;11135;54.192;15.670;2023-09-07T05:37:18;21.00;;;14.05;;
21941;SDS011;11135;54.192;15.670;2023-09-07T05:40:50;36.63;;;20.52;;
21941;SDS011;11135;54.192;15.670;2023-09-07T05:44:16;26.75;;;16.95;;
21941;SDS011;11135;54.192;15.670;2023-09-07T05:47:43;17.73;;;13.07;;
21941;SDS011;11135;54.192;15.670;2023-09-07T05:51:09;13.55;;;11.18;;
21941;SDS011;11135;54.192;15.670;2023-09-07T05:54:35;12.85;;;10.00;;
21941;SDS011;11135;54.192;15.670;2023-09-07T05:58:07;11.10;;;9.73;;
21941;SDS011;11135;54.192;15.670;2023-09-07T06:01:33;12.77;;;10.00;;
21941;SDS011;11135;54.192;15.670;2023-09-07T06:04:58;11.63;;;9.82;;
21941;SDS011;11135;54.192;15.670;2023-09-07T06:08:25;12.52;;;9.80;;
21941;SDS011;11135;54.192;15.670;2023-09-07T06:11:51;10.95;;;9.85;;
21941;SDS011;11135;54.192;15.670;2023-09-07T06:15:20;13.98;;;9.07;;
21941;SDS011;11135;54.192;15.670;2023-09-07T06:18:52;11.00;;;9.40;;
21941;SDS011;11135;54.192;15.670;2023-09-07T06:22:18;10.20;;;9.20;;
21941;SDS011;11135;54.192;15.670;2023-09-07T06:25:44;10.80;;;9.63;;
21941;SDS011;11135;54.192;15.670;2023-09-07T06:29:11;10.07;;;8.27;;
21941;SDS011;11135;54.192;15.670;2023-09-07T06:32:40;12.40;;;9.52;;
21941;SDS011;11135;54.192;15.670;2023-09-07T06:36:07;10.35;;;8.90;;
21941;SDS011;11135;54.192;15.670;2023-09-07T06:39:33;11.75;;;8.80;;
21941;SDS011;11135;54.192;15.670;2023-09-07T06:43:02;10.38;;;9.20;;
21941;SDS011;11135;54.192;15.670;2023-09-07T06:46:28;10.30;;;9.23;;
21941;SDS011;11135;54.192;15.670;2023-09-07T06:50:00;10.00;;;8.82;;
21941;SDS011;11135;54.192;15.670;2023-09-07T06:53:25;9.73;;;8.50;;
21941;SDS011;11135;54.192;15.670;2023-09-07T06:57:11;10.80;;;9.52;;
21941;SDS011;11135;54.192;15.670;2023-09-07T07:00:39;8.85;;;7.95;;
21941;SDS011;11135;54.192;15.670;2023-09-07T07:04:06;10.85;;;8.73;;
21941;SDS011;11135;54.192;15.670;2023-09-07T07:07:35;9.93;;;8.55;;
21941;SDS011;11135;54.192;15.670;2023-09-07T07:11:01;9.60;;;8.57;;
21941;SDS011;11135;54.192;15.670;2023-09-07T07:14:32;10.55;;;8.18;;
21941;SDS011;11135;54.192;15.670;2023-09-07T07:17:58;11.40;;;9.20;;
21941;SDS011;11135;54.192;15.670;2023-09-07T07:21:24;9.27;;;8.30;;
21941;SDS011;11135;54.192;15.670;2023-09-07T07:24:52;9.40;;;7.60;;
21941;SDS011;11135;54.192;15.670;2023-09-07T07:28:18;9.23;;;8.13;;
21941;SDS011;11135;54.192;15.670;2023-09-07T07:31:44;8.50;;;7.57;;
21941;SDS011;11135;54.192;15.670;2023-09-07T07:35:10;8.43;;;7.53;;
21941;SDS011;11135;54.192;15.670;2023-09-07T07:38:37;9.10;;;8.13;;
21941;SDS011;11135;54.192;15.670;2023-09-07T07:42:05;10.82;;;7.57;;
21941;SDS011;11135;54.192;15.670;2023-09-07T07:45:34;8.57;;;7.10;;
21941;SDS011;11135;54.192;15.670;2023-09-07T07:49:01;7.70;;;6.90;;
21941;SDS011;11135;54.192;15.670;2023-09-07T07:52:30;8.68;;;7.00;;
21941;SDS011;11135;54.192;15.670;2023-09-07T07:55:56;7.78;;;6.72;;
21941;SDS011;11135;54.192;15.670;2023-09-07T07:59:25;7.30;;;6.60;;
21941;SDS011;11135;54.192;15.670;2023-09-07T08:02:51;7.72;;;6.93;;
21941;SDS011;11135;54.192;15.670;2023-09-07T08:06:18;7.60;;;6.82;;
21941;SDS011;11135;54.192;15.670;2023-09-07T08:09:48;7.95;;;7.15;;
21941;SDS011;11135;54.192;15.670;2023-09-07T08:13:14;8.23;;;7.32;;
21941;SDS011;11135;54.192;15.670;2023-09-07T08:16:44;8.18;;;6.90;;
21941;SDS011;11135;54.192;15.670;2023-09-07T08:20:11;7.25;;;6.55;;
21941;SDS011;11135;54.192;15.670;2023-09-07T08:23:41;7.55;;;6.85;;
21941;SDS011;11135;54.192;15.670;2023-09-07T08:27:07;8.23;;;6.50;;
21941;SDS011;11135;54.192;15.670;2023-09-07T08:30:35;7.45;;;6.75;;
21941;SDS011;11135;54.192;15.670;2023-09-07T08:34:05;7.60;;;6.68;;
21941;SDS011;11135;54.192;15.670;2023-09-07T08:37:33;8.50;;;7.20;;
21941;SDS011;11135;54.192;15.670;2023-09-07T08:41:01;7.82;;;6.85;;
21941;SDS011;11135;54.192;15.670;2023-09-07T08:44:28;8.70;;;7.00;;
21941;SDS011;11135;54.192;15.670;2023-09-07T08:47:55;9.88;;;6.97;;
21941;SDS011;11135;54.192;15.670;2023-09-07T08:51:24;11.38;;;6.78;;
21941;SDS011;11135;54.192;15.670;2023-09-07T08:54:55;10.40;;;6.80;;
21941;SDS011;11135;54.192;15.670;2023-09-07T08:58:21;8.18;;;7.00;;
21941;SDS011;11135;54.192;15.670;2023-09-07T09:01:47;8.40;;;7.60;;
21941;SDS011;11135;54.192;15.670;2023-09-07T09:05:12;9.98;;;8.15;;
21941;SDS011;11135;54.192;15.670;2023-09-07T09:08:44;9.25;;;8.30;;
21941;SDS011;11135;54.192;15.670;2023-09-07T09:12:14;12.23;;;8.00;;
21941;SDS011;11135;54.192;15.670;2023-09-07T09:15:40;8.93;;;7.55;;
21941;SDS011;11135;54.192;15.670;2023-09-07T09:19:06;8.82;;;7.50;;
21941;SDS011;11135;54.192;15.670;2023-09-07T09:22:33;8.77;;;7.85;;
21941;SDS011;11135;54.192;15.670;2023-09-07T09:26:08;8.65;;;7.45;;
21941;SDS011;11135;54.192;15.670;2023-09-07T09:29:35;8.05;;;7.25;;
21941;SDS011;11135;54.192;15.670;2023-09-07T09:33:01;8.70;;;7.80;;
21941;SDS011;11135;54.192;15.670;2023-09-07T09:36:32;9.73;;;7.35;;
21941;SDS011;11135;54.192;15.670;2023-09-07T09:39:58;9.52;;;7.55;;
21941;SDS011;11135;54.192;15.670;2023-09-07T09:43:29;7.95;;;7.15;;
21941;SDS011;11135;54.192;15.670;2023-09-07T09:46:57;8.60;;;7.30;;
21941;SDS011;11135;54.192;15.670;2023-09-07T09:50:25;7.78;;;6.97;;
21941;SDS011;11135;54.192;15.670;2023-09-07T09:53:55;8.65;;;6.80;;
21941;SDS011;11135;54.192;15.670;2023-09-07T09:57:21;9.90;;;6.50;;
21941;SDS011;11135;54.192;15.670;2023-09-07T10:00:50;7.82;;;6.75;;
21941;SDS011;11135;54.192;15.670;2023-09-07T10:04:18;7.93;;;6.97;;
21941;SDS011;11135;54.192;15.670;2023-09-07T10:07:47;8.23;;;6.88;;
21941;SDS011;11135;54.192;15.670;2023-09-07T10:11:14;8.40;;;7.60;;
21941;SDS011;11135;54.192;15.670;2023-09-07T10:14:39;10.77;;;7.40;;
21941;SDS011;11135;54.192;15.670;2023-09-07T10:18:13;8.75;;;7.45;;
21941;SDS011;11135;54.192;15.670;2023-09-07T10:21:39;8.85;;;7.50;;
21941;SDS011;11135;54.192;15.670;2023-09-07T10:25:17;7.53;;;6.82;;
21941;SDS011;11135;54.192;15.670;2023-09-07T10:28:43;7.97;;;7.15;;
21941;SDS011;11135;54.192;15.670;2023-09-07T10:32:09;7.93;;;6.40;;
21941;SDS011;11135;54.192;15.670;2023-09-07T10:35:43;8.55;;;7.13;;
21941;SDS011;11135;54.192;15.670;2023-09-07T10:39:14;7.55;;;6.80;;
21941;SDS011;11135;54.192;15.670;2023-09-07T10:42:41;7.22;;;6.45;;
21941;SDS011;11135;54.192;15.670;2023-09-07T10:46:07;7.78;;;6.78;;
21941;SDS011;11135;54.192;15.670;2023-09-07T10:49:33;7.00;;;6.07;;
21941;SDS011;11135;54.192;15.670;2023-09-07T10:53:03;6.50;;;5.90;;
21941;SDS011;11135;54.192;15.670;2023-09-07T10:56:29;6.10;;;5.50;;
21941;SDS011;11135;54.192;15.670;2023-09-07T10:59:55;7.00;;;6.28;;
21941;SDS011;11135;54.192;15.670;2023-09-07T11:03:21;8.35;;;6.75;;
21941;SDS011;11135;54.192;15.670;2023-09-07T11:06:48;7.65;;;6.05;;
21941;SDS011;11135;54.192;15.670;2023-09-07T11:10:17;8.25;;;6.60;;
21941;SDS011;11135;54.192;15.670;2023-09-07T11:13:46;7.25;;;6.25;;
21941;SDS011;11135;54.192;15.670;2023-09-07T11:17:11;8.13;;;6.82;;
21941;SDS011;11135;54.192;15.670;2023-09-07T11:20:43;7.10;;;6.30;;
21941;SDS011;11135;54.192;15.670;2023-09-07T11:24:09;7.65;;;6.45;;
21941;SDS011;11135;54.192;15.670;2023-09-07T11:27:44;10.48;;;7.35;;
21941;SDS011;11135;54.192;15.670;2023-09-07T11:31:10;8.95;;;7.47;;
21941;SDS011;11135;54.192;15.670;2023-09-07T11:34:46;9.13;;;7.40;;
21941;SDS011;11135;54.192;15.670;2023-09-07T11:38:13;9.38;;;8.57;;
21941;SDS011;11135;54.192;15.670;2023-09-07T11:41:40;8.65;;;7.75;;
21941;SDS011;11135;54.192;15.670;2023-09-07T11:45:12;10.15;;;8.52;;
21941;SDS011;11135;54.192;15.670;2023-09-07T11:48:41;9.57;;;8.68;;
21941;SDS011;11135;54.192;15.670;2023-09-07T11:52:07;10.13;;;9.13;;
21941;SDS011;11135;54.192;15.670;2023-09-07T11:55:33;9.25;;;8.40;;
21941;SDS011;11135;54.192;15.670;2023-09-07T11:58:59;8.23;;;7.50;;
21941;SDS011;11135;54.192;15.670;2023-09-07T12:02:29;7.88;;;7.18;;
21941;SDS011;11135;54.192;15.670;2023-09-07T12:05:56;7.88;;;7.05;;
21941;SDS011;11135;54.192;15.670;2023-09-07T12:09:24;7.00;;;6.30;;
21941;SDS011;11135;54.192;15.670;2023-09-07T12:12:51;6.97;;;6.38;;
21941;SDS011;11135;54.192;15.670;2023-09-07T12:16:18;7.07;;;6.25;;
21941;SDS011;11135;54.192;15.670;2023-09-07T12:19:52;6.95;;;6.25;;
21941;SDS011;11135;54.192;15.670;2023-09-07T12:23:19;6.43;;;5.83;;
21941;SDS011;11135;54.192;15.670;2023-09-07T12:26:47;6.57;;;5.75;;
21941;SDS011;11135;54.192;15.670;2023-09-07T12:30:14;6.18;;;5.53;;
21941;SDS011;11135;54.192;15.670;2023-09-07T12:33:46;7.35;;;6.65;;
21941;SDS011;11135;54.192;15.670;2023-09-07T12:37:15;6.38;;;5.63;;
21941;SDS011;11135;54.192;15.670;2023-09-07T12:40:42;7.53;;;6.72;;
21941;SDS011;11135;54.192;15.670;2023-09-07T12:44:10;7.38;;;6.63;;
21941;SDS011;11135;54.192;15.670;2023-09-07T12:47:36;7.10;;;6.10;;
21941;SDS011;11135;54.192;15.670;2023-09-07T12:51:02;8.20;;;6.22;;
21941;SDS011;11135;54.192;15.670;2023-09-07T12:54:31;6.75;;;5.85;;
21941;SDS011;11135;54.192;15.670;2023-09-07T12:58:03;6.75;;;6.05;;
21941;SDS011;11135;54.192;15.670;2023-09-07T13:01:32;6.10;;;5.50;;
21941;SDS011;11135;54.192;15.670;2023-09-07T13:04:58;5.85;;;5.35;;
21941;SDS011;11135;54.192;15.670;2023-09-07T13:08:28;7.55;;;5.78;;
21941;SDS011;11135;54.192;15.670;2023-09-07T13:11:57;6.53;;;5.85;;
21941;SDS011;11135;54.192;15.670;2023-09-07T13:15:23;8.77;;;6.13;;
21941;SDS011;11135;54.192;15.670;2023-09-07T13:18:50;6.18;;;5.32;;
21941;SDS011;11135;54.192;15.670;2023-09-07T13:22:16;7.13;;;5.43;;
21941;SDS011;11135;54.192;15.670;2023-09-07T13:25:43;7.45;;;5.43;;
21941;SDS011;11135;54.192;15.670;2023-09-07T13:29:11;5.65;;;5.15;;
21941;SDS011;11135;54.192;15.670;2023-09-07T13:32:37;6.25;;;5.65;;
21941;SDS011;11135;54.192;15.670;2023-09-07T13:36:05;5.72;;;5.10;;
21941;SDS011;11135;54.192;15.670;2023-09-07T13:39:34;5.43;;;4.93;;
21941;SDS011;11135;54.192;15.670;2023-09-07T13:43:05;5.90;;;5.40;;
21941;SDS011;11135;54.192;15.670;2023-09-07T13:46:36;5.70;;;5.20;;
21941;SDS011;11135;54.192;15.670;2023-09-07T13:50:07;5.63;;;4.82;;
21941;SDS011;11135;54.192;15.670;2023-09-07T13:53:33;6.07;;;5.22;;
21941;SDS011;11135;54.192;15.670;2023-09-07T13:56:59;5.93;;;5.18;;
21941;SDS011;11135;54.192;15.670;2023-09-07T14:00:26;6.00;;;5.10;;
21941;SDS011;11135;54.192;15.670;2023-09-07T14:04:00;6.40;;;5.80;;
21941;SDS011;11135;54.192;15.670;2023-09-07T14:07:28;7.07;;;5.53;;
21941;SDS011;11135;54.192;15.670;2023-09-07T14:10:56;5.65;;;4.82;;
21941;SDS011;11135;54.192;15.670;2023-09-07T14:14:25;6.63;;;5.90;;
21941;SDS011;11135;54.192;15.670;2023-09-07T14:17:51;6.85;;;5.53;;
21941;SDS011;11135;54.192;15.670;2023-09-07T14:21:21;6.60;;;5.85;;
21941;SDS011;11135;54.192;15.670;2023-09-07T14:24:48;6.57;;;5.95;;
21941;SDS011;11135;54.192;15.670;2023-09-07T14:28:14;6.30;;;5.70;;
21941;SDS011;11135;54.192;15.670;2023-09-07T14:31:40;7.25;;;5.75;;
21941;SDS011;11135;54.192;15.670;2023-09-07T14:35:06;8.18;;;6.03;;
21941;SDS011;11135;54.192;15.670;2023-09-07T14:38:38;7.60;;;6.90;;
21941;SDS011;11135;54.192;15.670;2023-09-07T14:42:07;7.63;;;6.32;;
21941;SDS011;11135;54.192;15.670;2023-09-07T14:45:36;6.25;;;5.40;;
21941;SDS011;11135;54.192;15.670;2023-09-07T14:49:04;6.95;;;6.25;;
21941;SDS011;11135;54.192;15.670;2023-09-07T14:52:29;6.30;;;5.68;;
21941;SDS011;11135;54.192;15.670;2023-09-07T14:56:03;6.00;;;5.50;;
21941;SDS011;11135;54.192;15.670;2023-09-07T14:59:29;5.72;;;5.10;;
21941;SDS011;11135;54.192;15.670;2023-09-07T15:02:59;6.93;;;5.55;;
21941;SDS011;11135;54.192;15.670;2023-09-07T15:06:25;6.35;;;5.60;;
21941;SDS011;11135;54.192;15.670;2023-09-07T15:09:56;7.37;;;4.93;;
21941;SDS011;11135;54.192;15.670;2023-09-07T15:13:24;7.53;;;5.55;;
21941;SDS011;11135;54.192;15.670;2023-09-07T15:16:53;8.30;;;5.57;;
21941;SDS011;11135;54.192;15.670;2023-09-07T15:20:23;7.65;;;5.63;;
21941;SDS011;11135;54.192;15.670;2023-09-07T15:23:49;6.95;;;6.10;;
21941;SDS011;11135;54.192;15.670;2023-09-07T15:27:17;7.38;;;5.30;;
21941;SDS011;11135;54.192;15.670;2023-09-07T15:30:48;7.25;;;5.45;;
21941;SDS011;11135;54.192;15.670;2023-09-07T15:34:14;9.02;;;6.05;;
21941;SDS011;11135;54.192;15.670;2023-09-07T15:37:41;7.20;;;5.25;;
21941;SDS011;11135;54.192;15.670;2023-09-07T15:41:09;5.68;;;5.13;;
21941;SDS011;11135;54.192;15.670;2023-09-07T15:44:36;5.75;;;5.00;;
21941;SDS011;11135;54.192;15.670;2023-09-07T15:48:07;6.47;;;5.65;;
21941;SDS011;11135;54.192;15.670;2023-09-07T15:51:34;9.05;;;5.80;;
21941;SDS011;11135;54.192;15.670;2023-09-07T15:55:00;5.82;;;5.05;;
21941;SDS011;11135;54.192;15.670;2023-09-07T15:58:26;7.57;;;5.75;;
21941;SDS011;11135;54.192;15.670;2023-09-07T16:01:54;7.32;;;5.18;;
21941;SDS011;11135;54.192;15.670;2023-09-07T16:05:24;8.75;;;5.57;;
21941;SDS011;11135;54.192;15.670;2023-09-07T16:08:49;7.70;;;5.97;;
21941;SDS011;11135;54.192;15.670;2023-09-07T16:12:17;5.88;;;5.28;;
21941;SDS011;11135;54.192;15.670;2023-09-07T16:15:43;8.10;;;5.90;;
21941;SDS011;11135;54.192;15.670;2023-09-07T16:19:10;7.20;;;5.30;;
21941;SDS011;11135;54.192;15.670;2023-09-07T16:22:42;7.38;;;5.78;;
21941;SDS011;11135;54.192;15.670;2023-09-07T16:26:10;12.77;;;6.18;;
21941;SDS011;11135;54.192;15.670;2023-09-07T16:29:36;9.73;;;6.28;;
21941;SDS011;11135;54.192;15.670;2023-09-07T16:33:06;7.47;;;6.28;;
21941;SDS011;11135;54.192;15.670;2023-09-07T16:36:33;7.95;;;6.03;;
21941;SDS011;11135;54.192;15.670;2023-09-07T16:40:02;8.05;;;5.70;;
21941;SDS011;11135;54.192;15.670;2023-09-07T16:43:28;8.50;;;5.82;;
21941;SDS011;11135;54.192;15.670;2023-09-07T16:46:55;8.15;;;5.88;;
21941;SDS011;11135;54.192;15.670;2023-09-07T16:50:20;13.90;;;6.40;;
21941;SDS011;11135;54.192;15.670;2023-09-07T16:53:54;8.43;;;5.82;;
21941;SDS011;11135;54.192;15.670;2023-09-07T16:57:23;9.00;;;6.25;;
21941;SDS011;11135;54.192;15.670;2023-09-07T17:00:50;10.35;;;5.82;;
21941;SDS011;11135;54.192;15.670;2023-09-07T17:04:18;8.50;;;5.90;;
21941;SDS011;11135;54.192;15.670;2023-09-07T17:07:48;9.48;;;6.07;;
21941;SDS011;11135;54.192;15.670;2023-09-07T17:11:14;11.07;;;7.03;;
21941;SDS011;11135;54.192;15.670;2023-09-07T17:14:43;8.85;;;6.90;;
21941;SDS011;11135;54.192;15.670;2023-09-07T17:18:10;10.43;;;7.40;;
21941;SDS011;11135;54.192;15.670;2023-09-07T17:21:51;11.07;;;6.93;;
21941;SDS011;11135;54.192;15.670;2023-09-07T17:25:26;10.13;;;7.60;;
21941;SDS011;11135;54.192;15.670;2023-09-07T17:28:55;14.77;;;8.57;;
21941;SDS011;11135;54.192;15.670;2023-09-07T17:32:25;20.23;;;10.25;;
21941;SDS011;11135;54.192;15.670;2023-09-07T17:35:54;17.73;;;11.63;;
21941;SDS011;11135;54.192;15.670;2023-09-07T17:39:20;18.70;;;10.38;;
21941;SDS011;11135;54.192;15.670;2023-09-07T17:42:47;14.52;;;9.15;;
21941;SDS011;11135;54.192;15.670;2023-09-07T17:46:13;16.20;;;11.38;;
21941;SDS011;11135;54.192;15.670;2023-09-07T17:49:43;12.55;;;8.20;;
21941;SDS011;11135;54.192;15.670;2023-09-07T17:53:10;11.60;;;8.68;;
21941;SDS011;11135;54.192;15.670;2023-09-07T17:56:39;10.15;;;7.97;;
21941;SDS011;11135;54.192;15.670;2023-09-07T18:00:08;15.15;;;9.15;;
21941;SDS011;11135;54.192;15.670;2023-09-07T18:03:35;12.70;;;9.15;;
21941;SDS011;11135;54.192;15.670;2023-09-07T18:07:06;13.63;;;9.80;;
21941;SDS011;11135;54.192;15.670;2023-09-07T18:10:42;10.48;;;9.18;;
21941;SDS011;11135;54.192;15.670;2023-09-07T18:14:12;11.55;;;9.18;;
21941;SDS011;11135;54.192;15.670;2023-09-07T18:17:38;10.43;;;8.88;;
21941;SDS011;11135;54.192;15.670;2023-09-07T18:21:04;10.23;;;8.07;;
21941;SDS011;11135;54.192;15.670;2023-09-07T18:24:34;9.18;;;7.63;;
21941;SDS011;11135;54.192;15.670;2023-09-07T18:28:02;9.27;;;8.07;;
21941;SDS011;11135;54.192;15.670;2023-09-07T18:31:29;9.65;;;8.43;;
21941;SDS011;11135;54.192;15.670;2023-09-07T18:34:56;11.32;;;8.55;;
21941;SDS011;11135;54.192;15.670;2023-09-07T18:38:23;10.27;;;8.10;;
21941;SDS011;11135;54.192;15.670;2023-09-07T18:41:55;9.25;;;7.50;;
21941;SDS011;11135;54.192;15.670;2023-09-07T18:45:24;10.35;;;7.80;;
21941;SDS011;11135;54.192;15.670;2023-09-07T18:48:49;9.25;;;7.47;;
21941;SDS011;11135;54.192;15.670;2023-09-07T18:52:16;10.35;;;7.85;;
21941;SDS011;11135;54.192;15.670;2023-09-07T18:55:42;7.97;;;6.90;;
21941;SDS011;11135;54.192;15.670;2023-09-07T18:59:13;9.48;;;7.75;;
21941;SDS011;11135;54.192;15.670;2023-09-07T19:02:41;9.50;;;7.80;;
21941;SDS011;11135;54.192;15.670;2023-09-07T19:06:07;12.10;;;8.35;;
21941;SDS011;11135;54.192;15.670;2023-09-07T19:09:33;10.90;;;8.18;;
21941;SDS011;11135;54.192;15.670;2023-09-07T19:13:00;10.65;;;7.38;;
21941;SDS011;11135;54.192;15.670;2023-09-07T19:16:30;9.68;;;7.93;;
21941;SDS011;11135;54.192;15.670;2023-09-07T19:19:57;11.57;;;8.27;;
21941;SDS011;11135;54.192;15.670;2023-09-07T19:23:23;9.68;;;8.23;;
21941;SDS011;11135;54.192;15.670;2023-09-07T19:26:49;8.60;;;7.70;;
21941;SDS011;11135;54.192;15.670;2023-09-07T19:30:18;9.32;;;7.82;;
21941;SDS011;11135;54.192;15.670;2023-09-07T19:33:50;9.95;;;8.15;;
21941;SDS011;11135;54.192;15.670;2023-09-07T19:37:18;13.18;;;8.80;;
21941;SDS011;11135;54.192;15.670;2023-09-07T19:40:46;10.57;;;8.68;;
21941;SDS011;11135;54.192;15.670;2023-09-07T19:44:18;11.02;;;9.52;;
21941;SDS011;11135;54.192;15.670;2023-09-07T19:47:46;12.18;;;9.90;;
21941;SDS011;11135;54.192;15.670;2023-09-07T19:51:15;12.25;;;9.63;;
21941;SDS011;11135;54.192;15.670;2023-09-07T19:54:49;13.25;;;9.43;;
21941;SDS011;11135;54.192;15.670;2023-09-07T19:58:15;13.98;;;9.00;;
21941;SDS011;11135;54.192;15.670;2023-09-07T20:01:52;9.63;;;8.57;;
21941;SDS011;11135;54.192;15.670;2023-09-07T20:05:18;12.18;;;8.93;;
21941;SDS011;11135;54.192;15.670;2023-09-07T20:08:50;11.82;;;8.55;;
21941;SDS011;11135;54.192;15.670;2023-09-07T20:12:23;9.70;;;8.70;;
21941;SDS011;11135;54.192;15.670;2023-09-07T20:15:53;10.85;;;8.43;;
21941;SDS011;11135;54.192;15.670;2023-09-07T20:19:18;11.18;;;8.88;;